sensor_id;sensor_type;location;lat;lon;timestamp;P1;durP1;ratioP1;P2;durP2;ratioP2
39982;SDS011;25670;44.782;10.356;2023-07-30T00:01:29;2.30;;;2.08;;
39982;SDS011;25670;44.782;10.356;2023-07-30T00:03:55;4.70;;;2.10;;
39982;SDS011;25670;44.782;10.356;2023-07-30T00:06:21;3.78;;;2.22;;
39982;SDS011;25670;44.782;10.356;2023-07-30T00:08:49;3.00;;;2.72;;
39982;SDS011;25670;44.782;10.356;2023-07-30T00:11:15;4.38;;;3.30;;
39982;SDS011;25670;44.782;10.356;2023-07-30T00:13:41;4.63;;;4.22;;
39982;SDS011;25670;44.782;10.356;2023-07-30T00:16:08;10.10;;;2.35;;
39982;SDS011;25670;44.782;10.356;2023-07-30T00:18:34;10.30;;;2.25;;
39982;SDS011;25670;44.782;10.356;2023-07-30T00:21:01;7.80;;;2.00;;
39982;SDS011;25670;44.782;10.356;2023-07-30T00:23:27;14.80;;;1.52;;
39982;SDS011;25670;44.782;10.356;2023-07-30T00:25:53;9.93;;;1.50;;
39982;SDS011;25670;44.782;10.356;2023-07-30T00:28:19;6.43;;;1.20;;
39982;SDS011;25670;44.782;10.356;2023-07-30T00:30:46;1.13;;;1.00;;
39982;SDS011;25670;44.782;10.356;2023-07-30T00:33:12;1.60;;;1.10;;
39982;SDS011;25670;44.782;10.356;2023-07-30T00:35:39;3.33;;;1.13;;
39982;SDS011;25670;44.782;10.356;2023-07-30T00:38:05;7.38;;;1.08;;
39982;SDS011;25670;44.782;10.356;2023-07-30T00:40:31;3.15;;;0.68;;
39982;SDS011;25670;44.782;10.356;2023-07-30T00:42:58;2.35;;;1.23;;
39982;SDS011;25670;44.782;10.356;2023-07-30T00:45:24;1.77;;;0.63;;
39982;SDS011;25670;44.782;10.356;2023-07-30T00:47:50;4.20;;;1.13;;
39982;SDS011;25670;44.782;10.356;2023-07-30T00:50:17;1.52;;;0.65;;
39982;SDS011;25670;44.782;10.356;2023-07-30T00:52:44;0.88;;;0.85;;
39982;SDS011;25670;44.782;10.356;2023-07-30T00:55:10;2.72;;;1.05;;
39982;SDS011;25670;44.782;10.356;2023-07-30T00:57:37;8.27;;;0.80;;
39982;SDS011;25670;44.782;10.356;2023-07-30T01:00:05;1.38;;;1.08;;
39982;SDS011;25670;44.782;10.356;2023-07-30T01:02:37;4.03;;;0.90;;
39982;SDS011;25670;44.782;10.356;2023-07-30T01:05:03;1.35;;;0.70;;
39982;SDS011;25670;44.782;10.356;2023-07-30T01:07:30;1.05;;;1.00;;
39982;SDS011;25670;44.782;10.356;2023-07-30T01:09:57;7.07;;;0.88;;
39982;SDS011;25670;44.782;10.356;2023-07-30T01:12:24;9.23;;;1.35;;
39982;SDS011;25670;44.782;10.356;2023-07-30T01:14:51;9.45;;;1.10;;
39982;SDS011;25670;44.782;10.356;2023-07-30T01:17:18;1.23;;;0.80;;
39982;SDS011;25670;44.782;10.356;2023-07-30T01:19:44;1.70;;;0.80;;
39982;SDS011;25670;44.782;10.356;2023-07-30T01:22:10;4.53;;;1.17;;
39982;SDS011;25670;44.782;10.356;2023-07-30T01:24:36;1.10;;;0.82;;
39982;SDS011;25670;44.782;10.356;2023-07-30T01:27:07;1.05;;;0.95;;
39982;SDS011;25670;44.782;10.356;2023-07-30T01:32:08;1.87;;;0.80;;
39982;SDS011;25670;44.782;10.356;2023-07-30T01:34:37;1.05;;;0.80;;
39982;SDS011;25670;44.782;10.356;2023-07-30T01:37:09;2.92;;;1.10;;
39982;SDS011;25670;44.782;10.356;2023-07-30T01:39:37;0.70;;;0.70;;
39982;SDS011;25670;44.782;10.356;2023-07-30T01:42:06;0.70;;;0.70;;
39982;SDS011;25670;44.782;10.356;2023-07-30T01:44:32;1.67;;;1.00;;
39982;SDS011;25670;44.782;10.356;2023-07-30T01:46:59;1.00;;;0.90;;
39982;SDS011;25670;44.782;10.356;2023-07-30T01:49:25;0.95;;;0.88;;
39982;SDS011;25670;44.782;10.356;2023-07-30T01:51:52;3.03;;;0.98;;
39982;SDS011;25670;44.782;10.356;2023-07-30T01:54:18;1.55;;;0.93;;
39982;SDS011;25670;44.782;10.356;2023-07-30T01:56:44;0.80;;;0.80;;
39982;SDS011;25670;44.782;10.356;2023-07-30T01:59:11;4.80;;;1.00;;
39982;SDS011;25670;44.782;10.356;2023-07-30T02:01:37;1.27;;;0.80;;
39982;SDS011;25670;44.782;10.356;2023-07-30T02:04:03;3.60;;;0.82;;
39982;SDS011;25670;44.782;10.356;2023-07-30T02:06:30;1.10;;;1.00;;
39982;SDS011;25670;44.782;10.356;2023-07-30T02:08:56;1.00;;;0.90;;
39982;SDS011;25670;44.782;10.356;2023-07-30T02:11:22;1.25;;;1.05;;
39982;SDS011;25670;44.782;10.356;2023-07-30T02:13:49;1.55;;;1.45;;
39982;SDS011;25670;44.782;10.356;2023-07-30T02:16:15;1.45;;;1.35;;
39982;SDS011;25670;44.782;10.356;2023-07-30T02:18:41;1.85;;;1.75;;
39982;SDS011;25670;44.782;10.356;2023-07-30T02:21:08;3.00;;;1.52;;
39982;SDS011;25670;44.782;10.356;2023-07-30T02:23:34;5.35;;;1.20;;
39982;SDS011;25670;44.782;10.356;2023-07-30T02:26:01;1.60;;;1.50;;
39982;SDS011;25670;44.782;10.356;2023-07-30T02:28:27;1.50;;;1.40;;
39982;SDS011;25670;44.782;10.356;2023-07-30T02:30:53;3.72;;;1.42;;
39982;SDS011;25670;44.782;10.356;2023-07-30T02:33:19;3.53;;;1.63;;
39982;SDS011;25670;44.782;10.356;2023-07-30T02:35:46;4.07;;;1.45;;
39982;SDS011;25670;44.782;10.356;2023-07-30T02:38:12;4.70;;;1.52;;
39982;SDS011;25670;44.782;10.356;2023-07-30T02:40:38;2.70;;;1.55;;
39982;SDS011;25670;44.782;10.356;2023-07-30T02:43:04;1.92;;;1.80;;
39982;SDS011;25670;44.782;10.356;2023-07-30T02:45:31;1.73;;;1.50;;
39982;SDS011;25670;44.782;10.356;2023-07-30T02:47:57;3.28;;;1.50;;
39982;SDS011;25670;44.782;10.356;2023-07-30T02:50:23;2.75;;;1.45;;
39982;SDS011;25670;44.782;10.356;2023-07-30T02:52:49;1.95;;;1.85;;
39982;SDS011;25670;44.782;10.356;2023-07-30T02:55:16;1.30;;;1.20;;
39982;SDS011;25670;44.782;10.356;2023-07-30T02:57:42;3.45;;;1.63;;
39982;SDS011;25670;44.782;10.356;2023-07-30T03:00:08;2.45;;;1.75;;
39982;SDS011;25670;44.782;10.356;2023-07-30T03:02:35;2.15;;;1.95;;
39982;SDS011;25670;44.782;10.356;2023-07-30T03:05:01;4.78;;;1.90;;
39982;SDS011;25670;44.782;10.356;2023-07-30T03:07:28;1.90;;;1.45;;
39982;SDS011;25670;44.782;10.356;2023-07-30T03:09:54;1.60;;;1.50;;
39982;SDS011;25670;44.782;10.356;2023-07-30T03:12:21;2.00;;;1.88;;
39982;SDS011;25670;44.782;10.356;2023-07-30T03:14:47;1.92;;;1.80;;
39982;SDS011;25670;44.782;10.356;2023-07-30T03:17:14;3.63;;;1.67;;
39982;SDS011;25670;44.782;10.356;2023-07-30T03:19:40;2.05;;;1.95;;
39982;SDS011;25670;44.782;10.356;2023-07-30T03:22:06;2.25;;;1.80;;
39982;SDS011;25670;44.782;10.356;2023-07-30T03:24:32;1.98;;;1.85;;
39982;SDS011;25670;44.782;10.356;2023-07-30T03:26:59;2.78;;;2.00;;
39982;SDS011;25670;44.782;10.356;2023-07-30T03:29:25;2.53;;;2.30;;
39982;SDS011;25670;44.782;10.356;2023-07-30T03:31:51;1.83;;;1.73;;
39982;SDS011;25670;44.782;10.356;2023-07-30T03:34:18;1.88;;;1.70;;
39982;SDS011;25670;44.782;10.356;2023-07-30T03:36:44;6.00;;;1.67;;
39982;SDS011;25670;44.782;10.356;2023-07-30T03:39:10;2.13;;;2.03;;
39982;SDS011;25670;44.782;10.356;2023-07-30T03:41:39;2.95;;;1.95;;
39982;SDS011;25670;44.782;10.356;2023-07-30T03:44:05;5.35;;;1.90;;
39982;SDS011;25670;44.782;10.356;2023-07-30T03:46:31;2.45;;;2.25;;
39982;SDS011;25670;44.782;10.356;2023-07-30T03:48:57;2.20;;;2.08;;
39982;SDS011;25670;44.782;10.356;2023-07-30T03:51:24;2.72;;;1.90;;
39982;SDS011;25670;44.782;10.356;2023-07-30T03:53:51;10.43;;;2.53;;
39982;SDS011;25670;44.782;10.356;2023-07-30T03:56:18;3.55;;;2.15;;
39982;SDS011;25670;44.782;10.356;2023-07-30T03:58:44;2.20;;;1.80;;
39982;SDS011;25670;44.782;10.356;2023-07-30T04:01:10;3.17;;;1.90;;
39982;SDS011;25670;44.782;10.356;2023-07-30T04:03:37;4.07;;;2.60;;
39982;SDS011;25670;44.782;10.356;2023-07-30T04:06:03;2.17;;;2.05;;
39982;SDS011;25670;44.782;10.356;2023-07-30T04:08:30;6.68;;;1.88;;
39982;SDS011;25670;44.782;10.356;2023-07-30T04:10:56;2.35;;;2.05;;
39982;SDS011;25670;44.782;10.356;2023-07-30T04:13:22;2.03;;;1.92;;
39982;SDS011;25670;44.782;10.356;2023-07-30T04:15:49;3.40;;;1.90;;
39982;SDS011;25670;44.782;10.356;2023-07-30T04:18:15;2.15;;;2.00;;
39982;SDS011;25670;44.782;10.356;2023-07-30T04:20:41;4.07;;;2.42;;
39982;SDS011;25670;44.782;10.356;2023-07-30T04:23:08;2.47;;;2.22;;
39982;SDS011;25670;44.782;10.356;2023-07-30T04:25:34;4.78;;;2.75;;
39982;SDS011;25670;44.782;10.356;2023-07-30T04:28:00;2.47;;;2.35;;
39982;SDS011;25670;44.782;10.356;2023-07-30T04:30:26;2.78;;;2.58;;
39982;SDS011;25670;44.782;10.356;2023-07-30T04:32:54;3.42;;;3.13;;
39982;SDS011;25670;44.782;10.356;2023-07-30T04:35:20;3.00;;;2.70;;
39982;SDS011;25670;44.782;10.356;2023-07-30T04:37:46;7.47;;;2.70;;
39982;SDS011;25670;44.782;10.356;2023-07-30T04:40:13;3.22;;;3.03;;
39982;SDS011;25670;44.782;10.356;2023-07-30T04:42:39;3.28;;;2.60;;
39982;SDS011;25670;44.782;10.356;2023-07-30T04:45:06;5.97;;;2.78;;
39982;SDS011;25670;44.782;10.356;2023-07-30T04:47:35;3.85;;;3.55;;
39982;SDS011;25670;44.782;10.356;2023-07-30T04:50:01;5.65;;;3.58;;
39982;SDS011;25670;44.782;10.356;2023-07-30T04:52:30;5.72;;;3.58;;
39982;SDS011;25670;44.782;10.356;2023-07-30T04:54:56;3.65;;;3.45;;
39982;SDS011;25670;44.782;10.356;2023-07-30T04:57:23;4.05;;;3.60;;
39982;SDS011;25670;44.782;10.356;2023-07-30T04:59:49;3.85;;;3.65;;
39982;SDS011;25670;44.782;10.356;2023-07-30T05:02:15;6.68;;;4.10;;
39982;SDS011;25670;44.782;10.356;2023-07-30T05:04:41;6.88;;;3.63;;
39982;SDS011;25670;44.782;10.356;2023-07-30T05:07:08;4.90;;;3.70;;
39982;SDS011;25670;44.782;10.356;2023-07-30T05:09:34;4.13;;;3.03;;
39982;SDS011;25670;44.782;10.356;2023-07-30T05:12:00;6.13;;;4.07;;
39982;SDS011;25670;44.782;10.356;2023-07-30T05:14:26;3.22;;;3.03;;
39982;SDS011;25670;44.782;10.356;2023-07-30T05:16:53;3.60;;;3.30;;
39982;SDS011;25670;44.782;10.356;2023-07-30T05:19:19;3.65;;;3.03;;
39982;SDS011;25670;44.782;10.356;2023-07-30T05:21:45;3.83;;;3.17;;
39982;SDS011;25670;44.782;10.356;2023-07-30T05:24:11;3.45;;;3.22;;
39982;SDS011;25670;44.782;10.356;2023-07-30T05:26:37;4.50;;;2.83;;
39982;SDS011;25670;44.782;10.356;2023-07-30T05:29:04;5.35;;;2.58;;
39982;SDS011;25670;44.782;10.356;2023-07-30T05:31:30;8.20;;;2.40;;
39982;SDS011;25670;44.782;10.356;2023-07-30T05:33:56;2.45;;;2.20;;
39982;SDS011;25670;44.782;10.356;2023-07-30T05:36:22;5.22;;;2.83;;
39982;SDS011;25670;44.782;10.356;2023-07-30T05:38:49;4.05;;;2.35;;
39982;SDS011;25670;44.782;10.356;2023-07-30T05:41:15;2.70;;;2.50;;
39982;SDS011;25670;44.782;10.356;2023-07-30T05:43:41;3.13;;;2.80;;
39982;SDS011;25670;44.782;10.356;2023-07-30T05:46:08;7.53;;;2.80;;
39982;SDS011;25670;44.782;10.356;2023-07-30T05:48:34;3.83;;;1.92;;
39982;SDS011;25670;44.782;10.356;2023-07-30T05:51:00;1.90;;;1.80;;
39982;SDS011;25670;44.782;10.356;2023-07-30T05:53:27;7.32;;;2.45;;
39982;SDS011;25670;44.782;10.356;2023-07-30T05:55:53;2.35;;;2.15;;
39982;SDS011;25670;44.782;10.356;2023-07-30T05:58:19;2.00;;;1.73;;
39982;SDS011;25670;44.782;10.356;2023-07-30T06:00:45;2.63;;;1.52;;
39982;SDS011;25670;44.782;10.356;2023-07-30T06:03:12;3.50;;;1.85;;
39982;SDS011;25670;44.782;10.356;2023-07-30T06:05:39;3.08;;;2.17;;
39982;SDS011;25670;44.782;10.356;2023-07-30T06:08:06;5.60;;;1.83;;
39982;SDS011;25670;44.782;10.356;2023-07-30T06:10:36;4.75;;;2.33;;
39982;SDS011;25670;44.782;10.356;2023-07-30T06:13:04;2.03;;;1.87;;
39982;SDS011;25670;44.782;10.356;2023-07-30T06:15:31;3.38;;;2.30;;
39982;SDS011;25670;44.782;10.356;2023-07-30T06:17:58;2.35;;;1.90;;
39982;SDS011;25670;44.782;10.356;2023-07-30T06:20:24;6.38;;;2.17;;
39982;SDS011;25670;44.782;10.356;2023-07-30T06:22:50;2.83;;;1.80;;
39982;SDS011;25670;44.782;10.356;2023-07-30T06:25:16;2.90;;;2.10;;
39982;SDS011;25670;44.782;10.356;2023-07-30T06:27:42;2.45;;;2.15;;
39982;SDS011;25670;44.782;10.356;2023-07-30T06:30:09;3.63;;;1.98;;
39982;SDS011;25670;44.782;10.356;2023-07-30T06:32:36;2.63;;;2.42;;
39982;SDS011;25670;44.782;10.356;2023-07-30T06:35:02;2.65;;;2.00;;
39982;SDS011;25670;44.782;10.356;2023-07-30T06:37:28;2.67;;;2.17;;
39982;SDS011;25670;44.782;10.356;2023-07-30T06:39:55;4.90;;;2.17;;
39982;SDS011;25670;44.782;10.356;2023-07-30T06:42:21;1.88;;;1.77;;
39982;SDS011;25670;44.782;10.356;2023-07-30T06:44:47;2.13;;;1.92;;
39982;SDS011;25670;44.782;10.356;2023-07-30T06:47:13;3.95;;;1.75;;
39982;SDS011;25670;44.782;10.356;2023-07-30T06:49:39;2.80;;;1.67;;
39982;SDS011;25670;44.782;10.356;2023-07-30T06:52:05;5.90;;;2.05;;
39982;SDS011;25670;44.782;10.356;2023-07-30T06:54:32;4.22;;;2.03;;
39982;SDS011;25670;44.782;10.356;2023-07-30T06:56:58;2.75;;;1.90;;
39982;SDS011;25670;44.782;10.356;2023-07-30T06:59:24;5.88;;;1.60;;
39982;SDS011;25670;44.782;10.356;2023-07-30T07:01:50;2.47;;;1.52;;
39982;SDS011;25670;44.782;10.356;2023-07-30T07:04:17;1.67;;;1.58;;
39982;SDS011;25670;44.782;10.356;2023-07-30T07:06:44;5.05;;;1.40;;
39982;SDS011;25670;44.782;10.356;2023-07-30T07:09:10;2.60;;;1.70;;
39982;SDS011;25670;44.782;10.356;2023-07-30T07:11:36;3.78;;;1.70;;
39982;SDS011;25670;44.782;10.356;2023-07-30T07:14:03;1.60;;;1.50;;
39982;SDS011;25670;44.782;10.356;2023-07-30T07:16:29;1.67;;;1.58;;
39982;SDS011;25670;44.782;10.356;2023-07-30T07:18:55;2.55;;;1.35;;
39982;SDS011;25670;44.782;10.356;2023-07-30T07:21:21;6.47;;;1.77;;
39982;SDS011;25670;44.782;10.356;2023-07-30T07:23:47;1.42;;;1.33;;
39982;SDS011;25670;44.782;10.356;2023-07-30T07:26:14;1.88;;;1.70;;
39982;SDS011;25670;44.782;10.356;2023-07-30T07:28:40;2.17;;;1.58;;
39982;SDS011;25670;44.782;10.356;2023-07-30T07:31:18;1.80;;;1.70;;
39982;SDS011;25670;44.782;10.356;2023-07-30T07:34:04;2.47;;;1.80;;
39982;SDS011;25670;44.782;10.356;2023-07-30T07:36:30;2.28;;;1.40;;
39982;SDS011;25670;44.782;10.356;2023-07-30T07:38:56;1.52;;;1.42;;
39982;SDS011;25670;44.782;10.356;2023-07-30T07:41:23;1.90;;;1.58;;
39982;SDS011;25670;44.782;10.356;2023-07-30T07:43:49;2.65;;;1.33;;
39982;SDS011;25670;44.782;10.356;2023-07-30T07:46:18;2.63;;;1.20;;
39982;SDS011;25670;44.782;10.356;2023-07-30T07:48:44;1.75;;;1.33;;
39982;SDS011;25670;44.782;10.356;2023-07-30T07:51:10;1.38;;;1.10;;
39982;SDS011;25670;44.782;10.356;2023-07-30T07:53:37;1.40;;;1.30;;
39982;SDS011;25670;44.782;10.356;2023-07-30T07:56:04;3.20;;;1.30;;
39982;SDS011;25670;44.782;10.356;2023-07-30T07:58:30;1.95;;;0.95;;
39982;SDS011;25670;44.782;10.356;2023-07-30T08:00:57;1.25;;;1.15;;
39982;SDS011;25670;44.782;10.356;2023-07-30T08:03:24;4.65;;;1.10;;
39982;SDS011;25670;44.782;10.356;2023-07-30T08:05:52;3.55;;;1.27;;
39982;SDS011;25670;44.782;10.356;2023-07-30T08:08:18;1.35;;;1.25;;
39982;SDS011;25670;44.782;10.356;2023-07-30T08:10:44;2.40;;;1.20;;
39982;SDS011;25670;44.782;10.356;2023-07-30T08:13:13;1.70;;;1.15;;
39982;SDS011;25670;44.782;10.356;2023-07-30T08:15:39;3.83;;;1.20;;
39982;SDS011;25670;44.782;10.356;2023-07-30T08:18:06;1.30;;;1.20;;
39982;SDS011;25670;44.782;10.356;2023-07-30T08:20:32;2.35;;;1.30;;
39982;SDS011;25670;44.782;10.356;2023-07-30T08:22:58;15.63;;;1.83;;
39982;SDS011;25670;44.782;10.356;2023-07-30T08:25:24;4.82;;;1.50;;
39982;SDS011;25670;44.782;10.356;2023-07-30T08:27:50;1.67;;;1.20;;
39982;SDS011;25670;44.782;10.356;2023-07-30T08:30:16;1.55;;;1.45;;
39982;SDS011;25670;44.782;10.356;2023-07-30T08:32:42;1.70;;;1.60;;
39982;SDS011;25670;44.782;10.356;2023-07-30T08:35:09;6.90;;;1.52;;
39982;SDS011;25670;44.782;10.356;2023-07-30T08:37:36;2.25;;;1.40;;
39982;SDS011;25670;44.782;10.356;2023-07-30T08:40:02;2.70;;;1.77;;
39982;SDS011;25670;44.782;10.356;2023-07-30T08:42:29;1.65;;;1.30;;
39982;SDS011;25670;44.782;10.356;2023-07-30T08:44:55;1.80;;;1.48;;
39982;SDS011;25670;44.782;10.356;2023-07-30T08:47:21;1.67;;;1.58;;
39982;SDS011;25670;44.782;10.356;2023-07-30T08:49:47;2.05;;;1.40;;
39982;SDS011;25670;44.782;10.356;2023-07-30T08:52:13;2.08;;;1.80;;
39982;SDS011;25670;44.782;10.356;2023-07-30T08:54:42;2.67;;;1.55;;
39982;SDS011;25670;44.782;10.356;2023-07-30T08:57:12;2.28;;;1.83;;
39982;SDS011;25670;44.782;10.356;2023-07-30T08:59:53;2.33;;;1.50;;
39982;SDS011;25670;44.782;10.356;2023-07-30T09:02:34;1.90;;;1.80;;
39982;SDS011;25670;44.782;10.356;2023-07-30T09:05:05;1.30;;;1.23;;
39982;SDS011;25670;44.782;10.356;2023-07-30T09:07:32;2.22;;;1.50;;
39982;SDS011;25670;44.782;10.356;2023-07-30T09:09:58;2.20;;;1.90;;
39982;SDS011;25670;44.782;10.356;2023-07-30T09:12:34;3.55;;;1.75;;
39982;SDS011;25670;44.782;10.356;2023-07-30T09:15:04;1.83;;;1.70;;
39982;SDS011;25670;44.782;10.356;2023-07-30T09:17:32;7.35;;;2.13;;
39982;SDS011;25670;44.782;10.356;2023-07-30T09:19:59;2.45;;;1.75;;
39982;SDS011;25670;44.782;10.356;2023-07-30T09:22:26;1.52;;;1.38;;
39982;SDS011;25670;44.782;10.356;2023-07-30T09:24:53;2.08;;;1.80;;
39982;SDS011;25670;44.782;10.356;2023-07-30T09:27:21;2.08;;;1.90;;
39982;SDS011;25670;44.782;10.356;2023-07-30T09:29:50;2.38;;;1.75;;
39982;SDS011;25670;44.782;10.356;2023-07-30T09:32:17;4.38;;;1.83;;
39982;SDS011;25670;44.782;10.356;2023-07-30T09:34:46;2.85;;;1.38;;
39982;SDS011;25670;44.782;10.356;2023-07-30T09:37:13;2.72;;;2.53;;
39982;SDS011;25670;44.782;10.356;2023-07-30T09:39:40;3.50;;;1.63;;
39982;SDS011;25670;44.782;10.356;2023-07-30T09:42:06;1.88;;;1.77;;
39982;SDS011;25670;44.782;10.356;2023-07-30T09:44:33;1.85;;;1.70;;
39982;SDS011;25670;44.782;10.356;2023-07-30T09:46:59;2.47;;;1.95;;
39982;SDS011;25670;44.782;10.356;2023-07-30T09:49:31;1.88;;;1.70;;
39982;SDS011;25670;44.782;10.356;2023-07-30T09:51:57;2.30;;;2.10;;
39982;SDS011;25670;44.782;10.356;2023-07-30T09:54:24;2.00;;;1.80;;
39982;SDS011;25670;44.782;10.356;2023-07-30T09:56:50;1.55;;;1.45;;
39982;SDS011;25670;44.782;10.356;2023-07-30T09:59:16;1.90;;;1.80;;
39982;SDS011;25670;44.782;10.356;2023-07-30T10:01:45;2.45;;;1.70;;
39982;SDS011;25670;44.782;10.356;2023-07-30T10:04:19;4.15;;;2.03;;
39982;SDS011;25670;44.782;10.356;2023-07-30T10:06:48;2.25;;;2.00;;
39982;SDS011;25670;44.782;10.356;2023-07-30T10:09:14;1.83;;;1.60;;
39982;SDS011;25670;44.782;10.356;2023-07-30T10:11:43;1.65;;;1.50;;
39982;SDS011;25670;44.782;10.356;2023-07-30T10:14:11;1.80;;;1.60;;
39982;SDS011;25670;44.782;10.356;2023-07-30T10:16:38;2.03;;;1.77;;
39982;SDS011;25670;44.782;10.356;2023-07-30T10:19:05;3.00;;;1.50;;
39982;SDS011;25670;44.782;10.356;2023-07-30T10:21:33;1.70;;;1.60;;
39982;SDS011;25670;44.782;10.356;2023-07-30T10:26:30;1.80;;;1.70;;
39982;SDS011;25670;44.782;10.356;2023-07-30T10:29:11;2.00;;;1.70;;
39982;SDS011;25670;44.782;10.356;2023-07-30T10:31:39;1.67;;;1.50;;
39982;SDS011;25670;44.782;10.356;2023-07-30T10:34:07;2.20;;;2.00;;
39982;SDS011;25670;44.782;10.356;2023-07-30T10:36:41;1.58;;;1.45;;
39982;SDS011;25670;44.782;10.356;2023-07-30T10:41:40;3.15;;;1.70;;
39982;SDS011;25670;44.782;10.356;2023-07-30T10:44:06;2.05;;;1.63;;
39982;SDS011;25670;44.782;10.356;2023-07-30T10:46:33;1.98;;;1.80;;
39982;SDS011;25670;44.782;10.356;2023-07-30T10:48:59;1.88;;;1.77;;
39982;SDS011;25670;44.782;10.356;2023-07-30T10:51:25;1.60;;;1.50;;
39982;SDS011;25670;44.782;10.356;2023-07-30T10:53:51;2.00;;;1.90;;
39982;SDS011;25670;44.782;10.356;2023-07-30T10:56:21;3.63;;;2.00;;
39982;SDS011;25670;44.782;10.356;2023-07-30T10:58:52;2.00;;;1.73;;
39982;SDS011;25670;44.782;10.356;2023-07-30T11:01:19;2.05;;;1.85;;
39982;SDS011;25670;44.782;10.356;2023-07-30T11:03:48;3.03;;;1.80;;
39982;SDS011;25670;44.782;10.356;2023-07-30T11:06:21;2.35;;;1.65;;
39982;SDS011;25670;44.782;10.356;2023-07-30T11:08:51;1.60;;;1.50;;
39982;SDS011;25670;44.782;10.356;2023-07-30T11:11:17;2.15;;;1.80;;
39982;SDS011;25670;44.782;10.356;2023-07-30T11:13:44;2.42;;;2.13;;
39982;SDS011;25670;44.782;10.356;2023-07-30T11:16:12;2.28;;;2.10;;
39982;SDS011;25670;44.782;10.356;2023-07-30T11:18:39;2.33;;;2.13;;
39982;SDS011;25670;44.782;10.356;2023-07-30T11:21:07;3.58;;;2.05;;
39982;SDS011;25670;44.782;10.356;2023-07-30T11:23:35;4.35;;;2.15;;
39982;SDS011;25670;44.782;10.356;2023-07-30T11:26:02;2.00;;;1.90;;
39982;SDS011;25670;44.782;10.356;2023-07-30T11:28:34;2.25;;;1.92;;
39982;SDS011;25670;44.782;10.356;2023-07-30T11:33:38;1.88;;;1.67;;
39982;SDS011;25670;44.782;10.356;2023-07-30T11:36:15;3.05;;;2.00;;
39982;SDS011;25670;44.782;10.356;2023-07-30T11:38:44;1.75;;;1.63;;
39982;SDS011;25670;44.782;10.356;2023-07-30T11:41:11;5.72;;;1.73;;
39982;SDS011;25670;44.782;10.356;2023-07-30T11:43:39;4.03;;;1.88;;
39982;SDS011;25670;44.782;10.356;2023-07-30T11:46:11;4.13;;;1.70;;
39982;SDS011;25670;44.782;10.356;2023-07-30T11:48:42;2.13;;;2.03;;
39982;SDS011;25670;44.782;10.356;2023-07-30T11:53:56;2.13;;;2.00;;
39982;SDS011;25670;44.782;10.356;2023-07-30T11:56:31;3.65;;;2.28;;
39982;SDS011;25670;44.782;10.356;2023-07-30T11:59:00;1.90;;;1.80;;
39982;SDS011;25670;44.782;10.356;2023-07-30T12:01:29;2.27;;;2.13;;
39982;SDS011;25670;44.782;10.356;2023-07-30T12:03:57;2.35;;;2.20;;
39982;SDS011;25670;44.782;10.356;2023-07-30T12:06:37;2.75;;;1.92;;
39982;SDS011;25670;44.782;10.356;2023-07-30T12:09:14;5.03;;;1.92;;
39982;SDS011;25670;44.782;10.356;2023-07-30T12:12:01;4.20;;;2.00;;
39982;SDS011;25670;44.782;10.356;2023-07-30T12:14:28;3.13;;;1.60;;
39982;SDS011;25670;44.782;10.356;2023-07-30T12:17:09;3.25;;;2.03;;
39982;SDS011;25670;44.782;10.356;2023-07-30T12:19:35;1.90;;;1.80;;
39982;SDS011;25670;44.782;10.356;2023-07-30T12:22:04;2.38;;;1.83;;
39982;SDS011;25670;44.782;10.356;2023-07-30T12:24:30;1.73;;;1.63;;
39982;SDS011;25670;44.782;10.356;2023-07-30T12:26:56;3.10;;;1.90;;
39982;SDS011;25670;44.782;10.356;2023-07-30T12:29:22;2.20;;;2.00;;
39982;SDS011;25670;44.782;10.356;2023-07-30T12:31:49;2.70;;;1.80;;
39982;SDS011;25670;44.782;10.356;2023-07-30T12:34:19;2.13;;;1.88;;
39982;SDS011;25670;44.782;10.356;2023-07-30T12:36:45;2.17;;;1.95;;
39982;SDS011;25670;44.782;10.356;2023-07-30T12:39:12;2.05;;;1.95;;
39982;SDS011;25670;44.782;10.356;2023-07-30T12:41:39;2.00;;;1.88;;
39982;SDS011;25670;44.782;10.356;2023-07-30T12:44:05;4.10;;;1.98;;
39982;SDS011;25670;44.782;10.356;2023-07-30T12:46:31;1.65;;;1.48;;
39982;SDS011;25670;44.782;10.356;2023-07-30T12:48:58;2.17;;;2.00;;
39982;SDS011;25670;44.782;10.356;2023-07-30T12:51:30;2.10;;;2.00;;
39982;SDS011;25670;44.782;10.356;2023-07-30T12:53:56;1.90;;;1.80;;
39982;SDS011;25670;44.782;10.356;2023-07-30T12:56:22;1.90;;;1.70;;
39982;SDS011;25670;44.782;10.356;2023-07-30T12:58:48;1.98;;;1.88;;
39982;SDS011;25670;44.782;10.356;2023-07-30T13:01:15;2.40;;;1.70;;
39982;SDS011;25670;44.782;10.356;2023-07-30T13:03:41;1.95;;;1.85;;
39982;SDS011;25670;44.782;10.356;2023-07-30T13:06:11;2.28;;;2.08;;
39982;SDS011;25670;44.782;10.356;2023-07-30T13:08:38;3.97;;;1.90;;
39982;SDS011;25670;44.782;10.356;2023-07-30T13:11:06;2.03;;;1.83;;
39982;SDS011;25670;44.782;10.356;2023-07-30T13:13:32;2.10;;;1.80;;
39982;SDS011;25670;44.782;10.356;2023-07-30T13:15:58;1.77;;;1.67;;
39982;SDS011;25670;44.782;10.356;2023-07-30T13:18:27;1.80;;;1.67;;
39982;SDS011;25670;44.782;10.356;2023-07-30T13:20:54;1.63;;;1.52;;
39982;SDS011;25670;44.782;10.356;2023-07-30T13:23:20;1.85;;;1.75;;
39982;SDS011;25670;44.782;10.356;2023-07-30T13:25:46;11.23;;;2.10;;
39982;SDS011;25670;44.782;10.356;2023-07-30T13:28:12;2.17;;;1.73;;
39982;SDS011;25670;44.782;10.356;2023-07-30T13:30:39;3.42;;;1.92;;
39982;SDS011;25670;44.782;10.356;2023-07-30T13:33:05;1.77;;;1.67;;
39982;SDS011;25670;44.782;10.356;2023-07-30T13:35:31;2.85;;;1.63;;
39982;SDS011;25670;44.782;10.356;2023-07-30T13:37:57;1.85;;;1.75;;
39982;SDS011;25670;44.782;10.356;2023-07-30T13:40:23;1.85;;;1.75;;
39982;SDS011;25670;44.782;10.356;2023-07-30T13:42:50;2.13;;;1.60;;
39982;SDS011;25670;44.782;10.356;2023-07-30T13:45:16;2.00;;;1.83;;
39982;SDS011;25670;44.782;10.356;2023-07-30T13:47:42;1.85;;;1.75;;
39982;SDS011;25670;44.782;10.356;2023-07-30T13:50:08;3.15;;;1.95;;
39982;SDS011;25670;44.782;10.356;2023-07-30T13:52:35;1.92;;;1.73;;
39982;SDS011;25670;44.782;10.356;2023-07-30T13:55:01;1.58;;;1.48;;
39982;SDS011;25670;44.782;10.356;2023-07-30T13:57:28;1.98;;;1.60;;
39982;SDS011;25670;44.782;10.356;2023-07-30T13:59:54;2.05;;;1.85;;
39982;SDS011;25670;44.782;10.356;2023-07-30T14:02:21;2.33;;;1.80;;
39982;SDS011;25670;44.782;10.356;2023-07-30T14:04:47;2.28;;;1.70;;
39982;SDS011;25670;44.782;10.356;2023-07-30T14:07:13;2.88;;;1.60;;
39982;SDS011;25670;44.782;10.356;2023-07-30T14:09:39;1.55;;;1.45;;
39982;SDS011;25670;44.782;10.356;2023-07-30T14:12:06;1.50;;;1.40;;
39982;SDS011;25670;44.782;10.356;2023-07-30T14:14:32;1.70;;;1.60;;
39982;SDS011;25670;44.782;10.356;2023-07-30T14:16:58;2.40;;;1.73;;
39982;SDS011;25670;44.782;10.356;2023-07-30T14:19:26;1.60;;;1.50;;
39982;SDS011;25670;44.782;10.356;2023-07-30T14:21:52;1.63;;;1.60;;
39982;SDS011;25670;44.782;10.356;2023-07-30T14:24:18;1.80;;;1.70;;
39982;SDS011;25670;44.782;10.356;2023-07-30T14:26:44;3.08;;;1.83;;
39982;SDS011;25670;44.782;10.356;2023-07-30T14:29:10;1.80;;;1.70;;
39982;SDS011;25670;44.782;10.356;2023-07-30T14:31:36;3.10;;;1.88;;
39982;SDS011;25670;44.782;10.356;2023-07-30T14:34:03;4.53;;;2.00;;
39982;SDS011;25670;44.782;10.356;2023-07-30T14:36:29;4.30;;;2.15;;
39982;SDS011;25670;44.782;10.356;2023-07-30T14:38:57;2.53;;;1.92;;
39982;SDS011;25670;44.782;10.356;2023-07-30T14:41:24;5.80;;;1.83;;
39982;SDS011;25670;44.782;10.356;2023-07-30T14:43:50;1.88;;;1.77;;
39982;SDS011;25670;44.782;10.356;2023-07-30T14:46:16;1.70;;;1.60;;